Pearl Harbor, Hawaii
Current Conditions -  °F | °C
As of 9:53 AM on Monday 26 Jan 2015 (Local Time) from PHNL Reporting Station
Scattered Clouds Scattered Clouds  
Wind Chill: 76°   Ceiling: Unl
Heat Index: 76°   Visibility: 10mi
Dew Point: 61°   Wind: 15mph
Humidity: 60%   Direction: 60°ENE
Pressure: 29.98"   Gusts: 22mph
Location:  21.31°N, 157.86°W
Report Text: PHNL 261953Z 06013G19KT 10SM FEW028 SCT037 SCT042 24/16 A2998 RMK AO2 SLP150 VCSH E-SE T02440161
Loading
Personal Weather Stations






























Interactive Weather Map New forecast layout! Learn more

10-Day Weather Forecast

Advertisements
Track Severe Weather on mobile